sensor_id;sensor_type;location;lat;lon;timestamp;P1;durP1;ratioP1;P2;durP2;ratioP2
12585;SDS011;6358;50.760;0.282;2023-03-01T00:02:07;2.10;;;1.90;;
12585;SDS011;6358;50.760;0.282;2023-03-01T00:04:33;2.07;;;1.70;;
12585;SDS011;6358;50.760;0.282;2023-03-01T00:07:00;2.17;;;1.73;;
12585;SDS011;6358;50.760;0.282;2023-03-01T00:09:26;2.73;;;1.90;;
12585;SDS011;6358;50.760;0.282;2023-03-01T00:11:52;1.70;;;1.60;;
12585;SDS011;6358;50.760;0.282;2023-03-01T00:14:18;1.90;;;1.80;;
12585;SDS011;6358;50.760;0.282;2023-03-01T00:16:45;2.00;;;1.80;;
12585;SDS011;6358;50.760;0.282;2023-03-01T00:19:15;2.10;;;1.90;;
12585;SDS011;6358;50.760;0.282;2023-03-01T00:21:41;2.33;;;1.90;;
12585;SDS011;6358;50.760;0.282;2023-03-01T00:24:08;2.80;;;2.00;;
12585;SDS011;6358;50.760;0.282;2023-03-01T00:26:34;2.40;;;2.13;;
12585;SDS011;6358;50.760;0.282;2023-03-01T00:29:00;2.57;;;1.87;;
12585;SDS011;6358;50.760;0.282;2023-03-01T00:31:28;1.83;;;1.70;;
12585;SDS011;6358;50.760;0.282;2023-03-01T00:34:01;2.07;;;1.90;;
12585;SDS011;6358;50.760;0.282;2023-03-01T00:36:29;3.00;;;1.90;;
12585;SDS011;6358;50.760;0.282;2023-03-01T00:38:55;2.43;;;1.83;;
12585;SDS011;6358;50.760;0.282;2023-03-01T00:41:22;2.13;;;1.93;;
12585;SDS011;6358;50.760;0.282;2023-03-01T00:43:49;2.30;;;2.10;;
12585;SDS011;6358;50.760;0.282;2023-03-01T00:46:16;2.00;;;1.90;;
12585;SDS011;6358;50.760;0.282;2023-03-01T00:48:42;3.23;;;1.90;;
12585;SDS011;6358;50.760;0.282;2023-03-01T00:53:35;2.37;;;2.20;;
12585;SDS011;6358;50.760;0.282;2023-03-01T00:56:01;2.10;;;1.90;;
12585;SDS011;6358;50.760;0.282;2023-03-01T00:58:27;2.30;;;2.00;;
12585;SDS011;6358;50.760;0.282;2023-03-01T01:00:53;2.30;;;2.10;;
12585;SDS011;6358;50.760;0.282;2023-03-01T01:03:19;2.13;;;1.93;;
12585;SDS011;6358;50.760;0.282;2023-03-01T01:05:45;2.13;;;1.90;;
12585;SDS011;6358;50.760;0.282;2023-03-01T01:08:11;2.10;;;1.93;;
12585;SDS011;6358;50.760;0.282;2023-03-01T01:10:38;2.10;;;1.90;;
12585;SDS011;6358;50.760;0.282;2023-03-01T01:13:04;2.37;;;2.17;;
12585;SDS011;6358;50.760;0.282;2023-03-01T01:15:33;2.30;;;2.10;;
12585;SDS011;6358;50.760;0.282;2023-03-01T01:18:00;2.03;;;1.83;;
12585;SDS011;6358;50.760;0.282;2023-03-01T01:20:26;2.20;;;2.00;;
12585;SDS011;6358;50.760;0.282;2023-03-01T01:22:52;2.10;;;1.90;;
12585;SDS011;6358;50.760;0.282;2023-03-01T01:25:18;2.30;;;2.10;;
12585;SDS011;6358;50.760;0.282;2023-03-01T01:27:44;2.93;;;2.17;;
12585;SDS011;6358;50.760;0.282;2023-03-01T01:30:10;2.33;;;2.13;;
12585;SDS011;6358;50.760;0.282;2023-03-01T01:32:37;2.40;;;2.20;;
12585;SDS011;6358;50.760;0.282;2023-03-01T01:35:03;2.40;;;2.20;;
12585;SDS011;6358;50.760;0.282;2023-03-01T01:37:29;2.07;;;1.97;;
12585;SDS011;6358;50.760;0.282;2023-03-01T01:39:58;3.80;;;2.30;;
12585;SDS011;6358;50.760;0.282;2023-03-01T01:42:25;2.40;;;2.20;;
12585;SDS011;6358;50.760;0.282;2023-03-01T01:47:36;2.50;;;2.30;;
12585;SDS011;6358;50.760;0.282;2023-03-01T01:50:02;2.40;;;2.20;;
12585;SDS011;6358;50.760;0.282;2023-03-01T01:52:35;2.80;;;2.27;;
12585;SDS011;6358;50.760;0.282;2023-03-01T01:57:30;2.50;;;2.30;;
12585;SDS011;6358;50.760;0.282;2023-03-01T02:00:03;2.40;;;2.07;;
12585;SDS011;6358;50.760;0.282;2023-03-01T02:02:29;2.83;;;2.23;;
12585;SDS011;6358;50.760;0.282;2023-03-01T02:05:09;2.40;;;2.20;;
12585;SDS011;6358;50.760;0.282;2023-03-01T02:07:37;2.50;;;2.30;;
12585;SDS011;6358;50.760;0.282;2023-03-01T02:10:04;2.60;;;2.40;;
12585;SDS011;6358;50.760;0.282;2023-03-01T02:12:30;2.77;;;2.50;;
12585;SDS011;6358;50.760;0.282;2023-03-01T02:14:56;2.33;;;2.20;;
12585;SDS011;6358;50.760;0.282;2023-03-01T02:17:22;2.60;;;2.40;;
12585;SDS011;6358;50.760;0.282;2023-03-01T02:20:08;2.67;;;2.47;;
12585;SDS011;6358;50.760;0.282;2023-03-01T02:22:36;2.43;;;2.23;;
12585;SDS011;6358;50.760;0.282;2023-03-01T02:25:07;2.53;;;2.33;;
12585;SDS011;6358;50.760;0.282;2023-03-01T02:27:40;3.10;;;2.77;;
12585;SDS011;6358;50.760;0.282;2023-03-01T02:30:07;2.80;;;2.60;;
12585;SDS011;6358;50.760;0.282;2023-03-01T02:32:35;2.67;;;2.47;;
12585;SDS011;6358;50.760;0.282;2023-03-01T02:35:01;3.00;;;2.70;;
12585;SDS011;6358;50.760;0.282;2023-03-01T02:37:31;2.80;;;2.60;;
12585;SDS011;6358;50.760;0.282;2023-03-01T02:40:02;2.57;;;2.37;;
12585;SDS011;6358;50.760;0.282;2023-03-01T02:42:33;2.80;;;2.60;;
12585;SDS011;6358;50.760;0.282;2023-03-01T02:45:02;2.80;;;2.40;;
12585;SDS011;6358;50.760;0.282;2023-03-01T02:47:29;2.70;;;2.50;;
12585;SDS011;6358;50.760;0.282;2023-03-01T02:49:55;2.77;;;2.53;;
12585;SDS011;6358;50.760;0.282;2023-03-01T02:54:52;2.70;;;2.50;;
12585;SDS011;6358;50.760;0.282;2023-03-01T02:57:22;2.60;;;2.40;;
12585;SDS011;6358;50.760;0.282;2023-03-01T02:59:49;2.80;;;2.60;;
12585;SDS011;6358;50.760;0.282;2023-03-01T03:02:20;2.63;;;2.43;;
12585;SDS011;6358;50.760;0.282;2023-03-01T03:05:01;4.30;;;2.93;;
12585;SDS011;6358;50.760;0.282;2023-03-01T03:07:27;2.80;;;2.60;;
12585;SDS011;6358;50.760;0.282;2023-03-01T03:09:53;3.37;;;2.53;;
12585;SDS011;6358;50.760;0.282;2023-03-01T03:12:19;2.83;;;2.63;;
12585;SDS011;6358;50.760;0.282;2023-03-01T03:14:45;2.87;;;2.67;;
12585;SDS011;6358;50.760;0.282;2023-03-01T03:17:11;2.53;;;2.33;;
12585;SDS011;6358;50.760;0.282;2023-03-01T03:19:37;2.60;;;2.40;;
12585;SDS011;6358;50.760;0.282;2023-03-01T03:22:03;2.97;;;2.67;;
12585;SDS011;6358;50.760;0.282;2023-03-01T03:24:29;2.80;;;2.60;;
12585;SDS011;6358;50.760;0.282;2023-03-01T03:27:03;2.60;;;2.40;;
12585;SDS011;6358;50.760;0.282;2023-03-01T03:29:29;2.73;;;2.50;;
12585;SDS011;6358;50.760;0.282;2023-03-01T03:31:55;2.70;;;2.50;;
12585;SDS011;6358;50.760;0.282;2023-03-01T03:34:21;2.80;;;2.60;;
12585;SDS011;6358;50.760;0.282;2023-03-01T03:36:47;2.83;;;2.63;;
12585;SDS011;6358;50.760;0.282;2023-03-01T03:39:13;2.90;;;2.70;;
12585;SDS011;6358;50.760;0.282;2023-03-01T03:41:39;2.80;;;2.60;;
12585;SDS011;6358;50.760;0.282;2023-03-01T03:44:05;2.93;;;2.70;;
12585;SDS011;6358;50.760;0.282;2023-03-01T03:46:31;2.70;;;2.50;;
12585;SDS011;6358;50.760;0.282;2023-03-01T03:48:57;2.60;;;2.40;;
12585;SDS011;6358;50.760;0.282;2023-03-01T03:51:23;2.80;;;2.60;;
12585;SDS011;6358;50.760;0.282;2023-03-01T03:53:49;3.13;;;2.77;;
12585;SDS011;6358;50.760;0.282;2023-03-01T03:56:16;2.87;;;2.57;;
12585;SDS011;6358;50.760;0.282;2023-03-01T03:58:42;2.83;;;2.63;;
12585;SDS011;6358;50.760;0.282;2023-03-01T04:01:08;2.83;;;2.63;;
12585;SDS011;6358;50.760;0.282;2023-03-01T04:03:34;3.00;;;2.70;;
12585;SDS011;6358;50.760;0.282;2023-03-01T04:06:00;2.73;;;2.53;;
12585;SDS011;6358;50.760;0.282;2023-03-01T04:08:27;2.73;;;2.53;;
12585;SDS011;6358;50.760;0.282;2023-03-01T04:10:57;2.70;;;2.50;;
12585;SDS011;6358;50.760;0.282;2023-03-01T04:13:23;2.67;;;2.47;;
12585;SDS011;6358;50.760;0.282;2023-03-01T04:15:53;2.80;;;2.60;;
12585;SDS011;6358;50.760;0.282;2023-03-01T04:18:21;2.90;;;2.70;;
12585;SDS011;6358;50.760;0.282;2023-03-01T04:20:47;2.93;;;2.70;;
12585;SDS011;6358;50.760;0.282;2023-03-01T04:23:17;3.17;;;2.87;;
12585;SDS011;6358;50.760;0.282;2023-03-01T04:25:47;3.00;;;2.80;;
12585;SDS011;6358;50.760;0.282;2023-03-01T04:28:22;2.93;;;2.67;;
12585;SDS011;6358;50.760;0.282;2023-03-01T04:30:50;3.10;;;2.80;;
12585;SDS011;6358;50.760;0.282;2023-03-01T04:33:16;3.23;;;2.93;;
12585;SDS011;6358;50.760;0.282;2023-03-01T04:35:43;2.67;;;2.47;;
12585;SDS011;6358;50.760;0.282;2023-03-01T04:38:09;3.30;;;2.70;;
12585;SDS011;6358;50.760;0.282;2023-03-01T04:40:35;3.07;;;2.87;;
12585;SDS011;6358;50.760;0.282;2023-03-01T04:43:02;4.50;;;2.70;;
12585;SDS011;6358;50.760;0.282;2023-03-01T04:45:28;2.83;;;2.63;;
12585;SDS011;6358;50.760;0.282;2023-03-01T04:47:54;3.70;;;3.00;;
12585;SDS011;6358;50.760;0.282;2023-03-01T04:50:23;3.13;;;2.93;;
12585;SDS011;6358;50.760;0.282;2023-03-01T04:52:50;3.27;;;3.00;;
12585;SDS011;6358;50.760;0.282;2023-03-01T04:55:17;3.10;;;2.90;;
12585;SDS011;6358;50.760;0.282;2023-03-01T04:57:43;2.90;;;2.70;;
12585;SDS011;6358;50.760;0.282;2023-03-01T05:00:10;3.10;;;2.73;;
12585;SDS011;6358;50.760;0.282;2023-03-01T05:02:55;2.93;;;2.70;;
12585;SDS011;6358;50.760;0.282;2023-03-01T05:05:23;3.30;;;3.07;;
12585;SDS011;6358;50.760;0.282;2023-03-01T05:07:51;3.07;;;2.87;;
12585;SDS011;6358;50.760;0.282;2023-03-01T05:10:17;2.87;;;2.67;;
12585;SDS011;6358;50.760;0.282;2023-03-01T05:12:43;3.30;;;3.00;;
12585;SDS011;6358;50.760;0.282;2023-03-01T05:15:09;2.80;;;2.60;;
12585;SDS011;6358;50.760;0.282;2023-03-01T05:17:35;3.27;;;2.97;;
12585;SDS011;6358;50.760;0.282;2023-03-01T05:20:01;3.10;;;2.83;;
12585;SDS011;6358;50.760;0.282;2023-03-01T05:22:32;3.20;;;2.90;;
12585;SDS011;6358;50.760;0.282;2023-03-01T05:24:58;3.07;;;2.87;;
12585;SDS011;6358;50.760;0.282;2023-03-01T05:27:24;2.90;;;2.70;;
12585;SDS011;6358;50.760;0.282;2023-03-01T05:29:50;3.17;;;2.87;;
12585;SDS011;6358;50.760;0.282;2023-03-01T05:32:17;3.03;;;2.83;;
12585;SDS011;6358;50.760;0.282;2023-03-01T05:34:43;2.80;;;2.60;;
12585;SDS011;6358;50.760;0.282;2023-03-01T05:37:11;2.90;;;2.70;;
12585;SDS011;6358;50.760;0.282;2023-03-01T05:39:38;3.10;;;2.80;;
12585;SDS011;6358;50.760;0.282;2023-03-01T05:42:04;3.90;;;2.80;;
12585;SDS011;6358;50.760;0.282;2023-03-01T05:44:33;2.90;;;2.70;;
12585;SDS011;6358;50.760;0.282;2023-03-01T05:46:59;3.20;;;2.90;;
12585;SDS011;6358;50.760;0.282;2023-03-01T05:49:25;3.50;;;3.20;;
12585;SDS011;6358;50.760;0.282;2023-03-01T05:51:52;3.13;;;2.83;;
12585;SDS011;6358;50.760;0.282;2023-03-01T05:54:19;2.80;;;2.60;;
12585;SDS011;6358;50.760;0.282;2023-03-01T05:56:45;3.20;;;3.00;;
12585;SDS011;6358;50.760;0.282;2023-03-01T05:59:12;2.90;;;2.70;;
12585;SDS011;6358;50.760;0.282;2023-03-01T06:01:39;3.00;;;2.80;;
12585;SDS011;6358;50.760;0.282;2023-03-01T06:04:05;3.60;;;3.30;;
12585;SDS011;6358;50.760;0.282;2023-03-01T06:06:35;2.87;;;2.67;;
12585;SDS011;6358;50.760;0.282;2023-03-01T06:09:02;2.93;;;2.73;;
12585;SDS011;6358;50.760;0.282;2023-03-01T06:11:28;2.80;;;2.60;;
12585;SDS011;6358;50.760;0.282;2023-03-01T06:13:54;3.00;;;2.70;;
12585;SDS011;6358;50.760;0.282;2023-03-01T06:16:21;3.13;;;2.83;;
12585;SDS011;6358;50.760;0.282;2023-03-01T06:18:47;2.93;;;2.73;;
12585;SDS011;6358;50.760;0.282;2023-03-01T06:21:13;2.97;;;2.60;;
12585;SDS011;6358;50.760;0.282;2023-03-01T06:23:39;3.10;;;2.70;;
12585;SDS011;6358;50.760;0.282;2023-03-01T06:26:06;3.07;;;2.77;;
12585;SDS011;6358;50.760;0.282;2023-03-01T06:28:32;2.87;;;2.67;;
12585;SDS011;6358;50.760;0.282;2023-03-01T06:30:58;2.90;;;2.70;;
12585;SDS011;6358;50.760;0.282;2023-03-01T06:33:24;2.90;;;2.70;;
12585;SDS011;6358;50.760;0.282;2023-03-01T06:35:51;3.10;;;2.90;;
12585;SDS011;6358;50.760;0.282;2023-03-01T06:38:17;2.73;;;2.53;;
12585;SDS011;6358;50.760;0.282;2023-03-01T06:40:44;2.80;;;2.60;;
12585;SDS011;6358;50.760;0.282;2023-03-01T06:43:10;3.07;;;2.87;;
12585;SDS011;6358;50.760;0.282;2023-03-01T06:45:36;2.60;;;2.37;;
12585;SDS011;6358;50.760;0.282;2023-03-01T06:48:05;3.10;;;2.80;;
12585;SDS011;6358;50.760;0.282;2023-03-01T06:50:31;2.77;;;2.57;;
12585;SDS011;6358;50.760;0.282;2023-03-01T06:52:57;2.50;;;2.30;;
12585;SDS011;6358;50.760;0.282;2023-03-01T06:55:24;3.33;;;2.50;;
12585;SDS011;6358;50.760;0.282;2023-03-01T06:57:59;2.70;;;2.50;;
12585;SDS011;6358;50.760;0.282;2023-03-01T07:00:25;2.60;;;2.40;;
12585;SDS011;6358;50.760;0.282;2023-03-01T07:02:52;2.63;;;2.30;;
12585;SDS011;6358;50.760;0.282;2023-03-01T07:05:18;3.30;;;2.40;;
12585;SDS011;6358;50.760;0.282;2023-03-01T07:07:44;4.43;;;2.60;;
12585;SDS011;6358;50.760;0.282;2023-03-01T07:10:11;4.63;;;2.30;;
12585;SDS011;6358;50.760;0.282;2023-03-01T07:12:37;3.20;;;2.00;;
12585;SDS011;6358;50.760;0.282;2023-03-01T07:15:03;5.40;;;2.33;;
12585;SDS011;6358;50.760;0.282;2023-03-01T07:17:30;6.00;;;2.37;;
12585;SDS011;6358;50.760;0.282;2023-03-01T07:19:56;2.73;;;2.00;;
12585;SDS011;6358;50.760;0.282;2023-03-01T07:22:22;2.40;;;2.20;;
12585;SDS011;6358;50.760;0.282;2023-03-01T07:24:48;5.50;;;2.03;;
12585;SDS011;6358;50.760;0.282;2023-03-01T07:27:14;2.47;;;1.67;;
12585;SDS011;6358;50.760;0.282;2023-03-01T07:29:40;5.13;;;2.10;;
12585;SDS011;6358;50.760;0.282;2023-03-01T07:32:06;4.20;;;1.83;;
12585;SDS011;6358;50.760;0.282;2023-03-01T07:34:32;2.40;;;1.90;;
12585;SDS011;6358;50.760;0.282;2023-03-01T07:36:59;2.00;;;1.83;;
12585;SDS011;6358;50.760;0.282;2023-03-01T07:39:25;6.03;;;2.00;;
12585;SDS011;6358;50.760;0.282;2023-03-01T07:41:51;4.50;;;1.87;;
12585;SDS011;6358;50.760;0.282;2023-03-01T07:44:19;4.00;;;2.00;;
12585;SDS011;6358;50.760;0.282;2023-03-01T07:46:45;3.30;;;1.93;;
12585;SDS011;6358;50.760;0.282;2023-03-01T07:49:11;3.50;;;2.03;;
12585;SDS011;6358;50.760;0.282;2023-03-01T07:51:37;3.20;;;2.30;;
12585;SDS011;6358;50.760;0.282;2023-03-01T07:54:03;3.47;;;2.60;;
12585;SDS011;6358;50.760;0.282;2023-03-01T07:56:29;3.30;;;3.00;;
12585;SDS011;6358;50.760;0.282;2023-03-01T07:58:56;4.17;;;2.90;;
12585;SDS011;6358;50.760;0.282;2023-03-01T08:01:22;6.47;;;3.00;;
12585;SDS011;6358;50.760;0.282;2023-03-01T08:03:48;4.30;;;2.63;;
12585;SDS011;6358;50.760;0.282;2023-03-01T08:06:15;2.93;;;2.63;;
12585;SDS011;6358;50.760;0.282;2023-03-01T08:08:41;3.77;;;2.23;;
12585;SDS011;6358;50.760;0.282;2023-03-01T08:11:09;2.40;;;2.20;;
12585;SDS011;6358;50.760;0.282;2023-03-01T08:13:36;3.83;;;2.10;;
12585;SDS011;6358;50.760;0.282;2023-03-01T08:16:03;2.30;;;1.90;;
12585;SDS011;6358;50.760;0.282;2023-03-01T08:18:29;4.00;;;1.93;;
12585;SDS011;6358;50.760;0.282;2023-03-01T08:20:55;2.87;;;1.97;;
12585;SDS011;6358;50.760;0.282;2023-03-01T08:23:21;2.70;;;1.70;;
12585;SDS011;6358;50.760;0.282;2023-03-01T08:25:47;1.77;;;1.60;;
12585;SDS011;6358;50.760;0.282;2023-03-01T08:28:13;3.73;;;1.70;;
12585;SDS011;6358;50.760;0.282;2023-03-01T08:30:39;2.67;;;1.90;;
12585;SDS011;6358;50.760;0.282;2023-03-01T08:33:05;1.60;;;1.50;;
12585;SDS011;6358;50.760;0.282;2023-03-01T08:35:31;1.80;;;1.57;;
12585;SDS011;6358;50.760;0.282;2023-03-01T08:37:57;5.17;;;1.60;;
12585;SDS011;6358;50.760;0.282;2023-03-01T08:40:23;1.83;;;1.43;;
12585;SDS011;6358;50.760;0.282;2023-03-01T08:42:49;2.60;;;1.50;;
12585;SDS011;6358;50.760;0.282;2023-03-01T08:45:15;1.67;;;1.37;;
12585;SDS011;6358;50.760;0.282;2023-03-01T08:47:43;4.03;;;1.60;;
12585;SDS011;6358;50.760;0.282;2023-03-01T08:50:10;2.30;;;1.50;;
12585;SDS011;6358;50.760;0.282;2023-03-01T08:52:36;1.63;;;1.30;;
12585;SDS011;6358;50.760;0.282;2023-03-01T08:55:02;2.43;;;1.50;;
12585;SDS011;6358;50.760;0.282;2023-03-01T08:57:28;1.47;;;1.30;;
12585;SDS011;6358;50.760;0.282;2023-03-01T08:59:55;1.93;;;1.40;;
12585;SDS011;6358;50.760;0.282;2023-03-01T09:02:21;1.93;;;1.50;;
12585;SDS011;6358;50.760;0.282;2023-03-01T09:04:47;2.97;;;1.53;;
12585;SDS011;6358;50.760;0.282;2023-03-01T09:07:14;1.47;;;1.37;;
12585;SDS011;6358;50.760;0.282;2023-03-01T09:09:40;1.67;;;1.33;;
12585;SDS011;6358;50.760;0.282;2023-03-01T09:12:06;3.83;;;1.50;;
12585;SDS011;6358;50.760;0.282;2023-03-01T09:14:32;1.73;;;1.40;;
12585;SDS011;6358;50.760;0.282;2023-03-01T09:16:58;1.83;;;1.40;;
12585;SDS011;6358;50.760;0.282;2023-03-01T09:19:27;1.43;;;1.33;;
12585;SDS011;6358;50.760;0.282;2023-03-01T09:21:53;1.53;;;1.43;;
12585;SDS011;6358;50.760;0.282;2023-03-01T09:24:21;1.37;;;1.27;;
12585;SDS011;6358;50.760;0.282;2023-03-01T09:26:48;1.97;;;1.43;;
12585;SDS011;6358;50.760;0.282;2023-03-01T09:29:14;1.50;;;1.40;;
12585;SDS011;6358;50.760;0.282;2023-03-01T09:31:41;1.53;;;1.20;;
12585;SDS011;6358;50.760;0.282;2023-03-01T09:34:07;2.63;;;1.47;;
12585;SDS011;6358;50.760;0.282;2023-03-01T09:36:34;1.30;;;1.20;;
12585;SDS011;6358;50.760;0.282;2023-03-01T09:39:00;1.83;;;1.50;;
12585;SDS011;6358;50.760;0.282;2023-03-01T09:46:44;2.20;;;1.27;;
12585;SDS011;6358;50.760;0.282;2023-03-01T09:49:12;2.03;;;1.40;;
12585;SDS011;6358;50.760;0.282;2023-03-01T09:51:42;1.47;;;1.37;;
12585;SDS011;6358;50.760;0.282;2023-03-01T09:54:08;1.40;;;1.30;;
12585;SDS011;6358;50.760;0.282;2023-03-01T09:56:45;1.47;;;1.30;;
12585;SDS011;6358;50.760;0.282;2023-03-01T10:01:53;1.37;;;1.27;;
12585;SDS011;6358;50.760;0.282;2023-03-01T10:09:40;1.40;;;1.20;;
12585;SDS011;6358;50.760;0.282;2023-03-01T10:12:10;2.37;;;1.37;;
12585;SDS011;6358;50.760;0.282;2023-03-01T10:14:38;1.40;;;1.30;;
12585;SDS011;6358;50.760;0.282;2023-03-01T10:19:44;1.60;;;1.23;;
12585;SDS011;6358;50.760;0.282;2023-03-01T10:24:37;1.50;;;1.40;;
12585;SDS011;6358;50.760;0.282;2023-03-01T10:32:33;1.30;;;1.20;;
12585;SDS011;6358;50.760;0.282;2023-03-01T10:34:59;4.53;;;1.60;;
12585;SDS011;6358;50.760;0.282;2023-03-01T10:37:26;1.27;;;1.07;;
12585;SDS011;6358;50.760;0.282;2023-03-01T10:40:06;1.20;;;1.10;;
12585;SDS011;6358;50.760;0.282;2023-03-01T10:45:25;1.37;;;1.20;;
12585;SDS011;6358;50.760;0.282;2023-03-01T10:50:33;2.17;;;1.40;;
12585;SDS011;6358;50.760;0.282;2023-03-01T10:53:03;1.43;;;1.33;;
12585;SDS011;6358;50.760;0.282;2023-03-01T10:55:31;1.90;;;1.40;;
12585;SDS011;6358;50.760;0.282;2023-03-01T10:58:06;1.73;;;1.00;;
12585;SDS011;6358;50.760;0.282;2023-03-01T11:00:33;1.20;;;1.10;;
12585;SDS011;6358;50.760;0.282;2023-03-01T11:03:12;1.47;;;1.30;;
12585;SDS011;6358;50.760;0.282;2023-03-01T11:08:26;1.97;;;1.03;;
12585;SDS011;6358;50.760;0.282;2023-03-01T11:11:03;1.80;;;1.10;;
12585;SDS011;6358;50.760;0.282;2023-03-01T11:13:29;2.87;;;1.30;;
12585;SDS011;6358;50.760;0.282;2023-03-01T11:16:00;2.07;;;1.23;;
12585;SDS011;6358;50.760;0.282;2023-03-01T11:18:26;1.47;;;1.37;;
12585;SDS011;6358;50.760;0.282;2023-03-01T11:20:53;2.20;;;1.40;;
12585;SDS011;6358;50.760;0.282;2023-03-01T11:23:21;1.23;;;1.10;;
12585;SDS011;6358;50.760;0.282;2023-03-01T11:25:59;4.10;;;1.13;;
12585;SDS011;6358;50.760;0.282;2023-03-01T11:28:26;2.10;;;1.30;;
12585;SDS011;6358;50.760;0.282;2023-03-01T11:30:55;1.33;;;1.20;;
12585;SDS011;6358;50.760;0.282;2023-03-01T11:33:40;1.53;;;1.03;;
12585;SDS011;6358;50.760;0.282;2023-03-01T11:36:13;1.47;;;1.10;;
12585;SDS011;6358;50.760;0.282;2023-03-01T11:38:42;1.43;;;1.17;;
12585;SDS011;6358;50.760;0.282;2023-03-01T11:41:18;1.27;;;1.17;;
12585;SDS011;6358;50.760;0.282;2023-03-01T11:54:27;1.10;;;1.10;;
12585;SDS011;6358;50.760;0.282;2023-03-01T11:59:57;1.87;;;1.20;;
12585;SDS011;6358;50.760;0.282;2023-03-01T12:04:59;2.00;;;1.20;;
12585;SDS011;6358;50.760;0.282;2023-03-01T12:10:09;1.07;;;0.90;;
12585;SDS011;6358;50.760;0.282;2023-03-01T12:17:52;2.90;;;1.00;;
12585;SDS011;6358;50.760;0.282;2023-03-01T12:28:25;1.30;;;1.10;;
12585;SDS011;6358;50.760;0.282;2023-03-01T12:38:45;1.90;;;1.17;;
12585;SDS011;6358;50.760;0.282;2023-03-01T12:46:44;1.43;;;0.80;;
12585;SDS011;6358;50.760;0.282;2023-03-01T12:49:13;0.90;;;0.77;;
12585;SDS011;6358;50.760;0.282;2023-03-01T12:51:40;1.77;;;0.90;;
12585;SDS011;6358;50.760;0.282;2023-03-01T12:54:14;0.90;;;0.80;;
12585;SDS011;6358;50.760;0.282;2023-03-01T12:56:40;0.87;;;0.87;;
12585;SDS011;6358;50.760;0.282;2023-03-01T13:01:57;1.90;;;0.80;;
12585;SDS011;6358;50.760;0.282;2023-03-01T13:09:37;1.57;;;0.80;;
12585;SDS011;6358;50.760;0.282;2023-03-01T13:12:42;0.73;;;0.70;;
12585;SDS011;6358;50.760;0.282;2023-03-01T13:15:00;2.13;;;0.70;;
12585;SDS011;6358;50.760;0.282;2023-03-01T13:17:30;0.93;;;0.80;;
12585;SDS011;6358;50.760;0.282;2023-03-01T13:19:57;1.83;;;1.00;;
12585;SDS011;6358;50.760;0.282;2023-03-01T13:22:31;1.53;;;0.80;;
12585;SDS011;6358;50.760;0.282;2023-03-01T13:25:18;1.13;;;0.80;;
12585;SDS011;6358;50.760;0.282;2023-03-01T13:27:44;2.03;;;0.70;;
12585;SDS011;6358;50.760;0.282;2023-03-01T13:33:22;1.63;;;0.70;;
12585;SDS011;6358;50.760;0.282;2023-03-01T13:35:43;2.67;;;0.90;;
12585;SDS011;6358;50.760;0.282;2023-03-01T13:43:27;1.40;;;0.80;;
12585;SDS011;6358;50.760;0.282;2023-03-01T13:45:54;1.97;;;1.10;;
12585;SDS011;6358;50.760;0.282;2023-03-01T13:48:22;1.13;;;0.90;;
12585;SDS011;6358;50.760;0.282;2023-03-01T13:50:54;0.80;;;0.80;;
12585;SDS011;6358;50.760;0.282;2023-03-01T13:53:22;1.10;;;0.90;;
12585;SDS011;6358;50.760;0.282;2023-03-01T13:58:52;1.57;;;0.67;;
12585;SDS011;6358;50.760;0.282;2023-03-01T14:01:21;0.90;;;0.90;;
12585;SDS011;6358;50.760;0.282;2023-03-01T14:03:47;1.90;;;0.90;;
12585;SDS011;6358;50.760;0.282;2023-03-01T14:06:16;1.07;;;0.80;;
12585;SDS011;6358;50.760;0.282;2023-03-01T14:08:43;2.13;;;1.17;;
12585;SDS011;6358;50.760;0.282;2023-03-01T14:18:55;1.13;;;0.93;;
12585;SDS011;6358;50.760;0.282;2023-03-01T14:21:23;1.93;;;0.80;;
12585;SDS011;6358;50.760;0.282;2023-03-01T14:23:51;2.23;;;0.90;;
12585;SDS011;6358;50.760;0.282;2023-03-01T14:26:21;1.60;;;0.97;;
12585;SDS011;6358;50.760;0.282;2023-03-01T14:28:48;0.97;;;0.97;;
12585;SDS011;6358;50.760;0.282;2023-03-01T14:33:59;0.80;;;0.70;;
12585;SDS011;6358;50.760;0.282;2023-03-01T14:36:27;1.37;;;0.90;;
12585;SDS011;6358;50.760;0.282;2023-03-01T14:38:53;1.57;;;1.00;;
12585;SDS011;6358;50.760;0.282;2023-03-01T14:41:23;1.10;;;0.73;;
12585;SDS011;6358;50.760;0.282;2023-03-01T14:43:50;1.13;;;1.00;;
12585;SDS011;6358;50.760;0.282;2023-03-01T14:46:23;0.87;;;0.87;;
12585;SDS011;6358;50.760;0.282;2023-03-01T14:48:51;0.77;;;0.77;;
12585;SDS011;6358;50.760;0.282;2023-03-01T14:51:18;2.00;;;0.80;;
12585;SDS011;6358;50.760;0.282;2023-03-01T14:53:44;0.90;;;0.80;;
12585;SDS011;6358;50.760;0.282;2023-03-01T14:56:15;1.23;;;0.87;;
12585;SDS011;6358;50.760;0.282;2023-03-01T14:58:42;1.40;;;0.90;;
12585;SDS011;6358;50.760;0.282;2023-03-01T15:01:13;1.70;;;0.90;;
12585;SDS011;6358;50.760;0.282;2023-03-01T15:03:41;2.30;;;0.90;;
12585;SDS011;6358;50.760;0.282;2023-03-01T15:06:09;3.80;;;0.80;;
12585;SDS011;6358;50.760;0.282;2023-03-01T15:08:37;1.60;;;0.90;;
12585;SDS011;6358;50.760;0.282;2023-03-01T15:13:39;0.87;;;0.87;;
12585;SDS011;6358;50.760;0.282;2023-03-01T15:16:09;1.13;;;0.90;;
12585;SDS011;6358;50.760;0.282;2023-03-01T15:18:36;2.50;;;0.90;;
12585;SDS011;6358;50.760;0.282;2023-03-01T15:21:07;1.70;;;0.87;;
12585;SDS011;6358;50.760;0.282;2023-03-01T15:23:33;1.30;;;0.73;;
12585;SDS011;6358;50.760;0.282;2023-03-01T15:26:00;0.73;;;0.70;;
12585;SDS011;6358;50.760;0.282;2023-03-01T15:28:27;1.50;;;1.10;;
12585;SDS011;6358;50.760;0.282;2023-03-01T15:30:55;1.57;;;0.90;;
12585;SDS011;6358;50.760;0.282;2023-03-01T15:35:52;3.23;;;1.00;;
12585;SDS011;6358;50.760;0.282;2023-03-01T15:40:58;14.60;;;1.87;;
12585;SDS011;6358;50.760;0.282;2023-03-01T15:46:32;8.80;;;1.30;;
12585;SDS011;6358;50.760;0.282;2023-03-01T15:49:00;20.27;;;2.17;;
12585;SDS011;6358;50.760;0.282;2023-03-01T15:51:34;4.47;;;1.13;;
12585;SDS011;6358;50.760;0.282;2023-03-01T15:54:02;1.87;;;1.00;;
12585;SDS011;6358;50.760;0.282;2023-03-01T15:56:28;5.33;;;1.13;;
12585;SDS011;6358;50.760;0.282;2023-03-01T15:58:58;5.50;;;0.97;;
12585;SDS011;6358;50.760;0.282;2023-03-01T16:01:24;2.63;;;0.97;;
12585;SDS011;6358;50.760;0.282;2023-03-01T16:03:50;4.07;;;1.03;;
12585;SDS011;6358;50.760;0.282;2023-03-01T16:06:18;1.10;;;0.83;;
12585;SDS011;6358;50.760;0.282;2023-03-01T16:08:44;1.53;;;1.00;;
12585;SDS011;6358;50.760;0.282;2023-03-01T16:11:14;1.20;;;1.07;;
12585;SDS011;6358;50.760;0.282;2023-03-01T16:13:41;3.40;;;0.90;;
12585;SDS011;6358;50.760;0.282;2023-03-01T16:16:09;2.00;;;0.70;;
12585;SDS011;6358;50.760;0.282;2023-03-01T16:18:37;0.80;;;0.80;;
12585;SDS011;6358;50.760;0.282;2023-03-01T16:21:04;2.13;;;1.33;;
12585;SDS011;6358;50.760;0.282;2023-03-01T16:23:30;1.03;;;0.90;;
12585;SDS011;6358;50.760;0.282;2023-03-01T16:26:00;1.53;;;0.83;;
12585;SDS011;6358;50.760;0.282;2023-03-01T16:28:26;1.20;;;0.93;;
12585;SDS011;6358;50.760;0.282;2023-03-01T16:30:52;0.80;;;0.80;;
12585;SDS011;6358;50.760;0.282;2023-03-01T16:33:18;1.13;;;0.70;;
12585;SDS011;6358;50.760;0.282;2023-03-01T16:35:44;1.30;;;0.80;;
12585;SDS011;6358;50.760;0.282;2023-03-01T16:38:10;1.00;;;0.80;;
12585;SDS011;6358;50.760;0.282;2023-03-01T16:40:36;0.80;;;0.70;;
12585;SDS011;6358;50.760;0.282;2023-03-01T16:43:02;0.77;;;0.77;;
12585;SDS011;6358;50.760;0.282;2023-03-01T16:45:34;0.93;;;0.70;;
12585;SDS011;6358;50.760;0.282;2023-03-01T16:48:01;0.97;;;0.80;;
12585;SDS011;6358;50.760;0.282;2023-03-01T16:50:27;1.40;;;0.70;;
12585;SDS011;6358;50.760;0.282;2023-03-01T16:52:53;1.00;;;0.97;;
12585;SDS011;6358;50.760;0.282;2023-03-01T16:55:19;0.90;;;0.77;;
12585;SDS011;6358;50.760;0.282;2023-03-01T16:57:45;1.23;;;0.90;;
12585;SDS011;6358;50.760;0.282;2023-03-01T17:00:12;2.20;;;0.80;;
12585;SDS011;6358;50.760;0.282;2023-03-01T17:02:39;1.77;;;1.00;;
12585;SDS011;6358;50.760;0.282;2023-03-01T17:05:06;0.60;;;0.60;;
12585;SDS011;6358;50.760;0.282;2023-03-01T17:07:32;0.70;;;0.70;;
12585;SDS011;6358;50.760;0.282;2023-03-01T17:09:59;2.70;;;1.00;;
12585;SDS011;6358;50.760;0.282;2023-03-01T17:12:25;1.43;;;1.00;;